Charter Quote
Worldwide +1-877-727-2538 Call
Select Language Lang
SAFETY RELIABILITY EXPERIENCE

Private Jet Charter Services - Kashi (ZWSH)

Paramount Business Jets offers private jet charter flights and luxury airliner charters to and from Kashi.

AIRPORT INFORMATION
ICAOZWSH
LOCATIONKashi, China
FACILITY TYPEAIRPORT

At Paramount Business Jets you can hire chartered private jets to and from Kashi with as little as 4 hours of notice. All flights booked via Paramount Business Jets are operated by certified direct air carriers that meet and exceed the FAA part 135 and 121 protocol or a foreign equivalent safety authority. Furthermore, Paramount Business Jets subscribes to ARGUS for their third party safety checks of operators, aircraft, and crews prior each and every flight to and from Kashi and worldwide.

  • Quote a trip using Kashi or call us 24/7 - 365 days a year at +1-877-727-2538.
Questions? Call +1-877-727-2538

METAR Weather Data at Kashi, ZWSH

STATIONZWSH
OBSERVEDTue Jul 16, 03:00 UTC
NOWTue Jul 16, 04:00 UTC
AGE60 min ago
WINDcalm
VISIBILITYgreater than 7 miles
CLOUDSclear skies
TEMP82°F (28°C)
DEWPT36°F (2°C)
HUMIDITY19%
BAROMETER1011 hPa (29.85 in Hg)
METARZWSH 160300Z 00000MPS CAVOK 28/02 Q1011 NOSIG

Call us on +1-877-727-2538 (24 Hours) to Hire a Private Jet or Get a Quick Quote.

Find Airports Near any Location

Processing
...